Irai, Brazil
Current Conditions -  °F | °C
As of 1:00 AM on Saturday 22 Nov 2014 (Local Time) from SBCH Reporting Station
Thunderstorm Thunderstorm  
Wind Chill: 68°   Ceiling: 9000
Heat Index: 68°   Visibility: 4mi
Dew Point: 68°   Wind: 9mph
Humidity: 100%   Direction: 50°NE
Pressure: NA   Gusts: NA
Location:  27.19°S, 53.25°W
Report Text: SBCH 220300Z 05008KT 7000 -TSRA FEW020 FEW050CB OVC090 20/20 Q1013
Loading
Personal Weather Stations






























Interactive Weather Map New forecast layout! Learn more

10-Day Weather Forecast

Advertisements
Track Severe Weather on mobile